Time;durP1;ratioP1;P1;durP2;ratioP2;P2;SDS_P1;SDS_P2;PMS_P1;PMS_P2;Temp;Humidity;BMP_temperature;BMP_pressure;BME280_temperature;BME280_humidity;BME280_pressure;Samples;Min_cycle;Max_cycle;Signal;HPM_P1;HPM_P2
2024/01/23 00:02:22;;;;;;;9.57;6.03;;;;;;;11.37;41.55;97569.66;6156902;23;20009;-27
2024/01/23 00:04:47;;;;;;;9.93;6.45;;;;;;;11.32;41.78;97545.63;6156262;23;20048;-27
2024/01/23 00:07:12;;;;;;;14.05;7.22;;;;;;;11.51;41.12;97515.16;6156446;23;20001;-27
2024/01/23 00:09:38;;;;;;;14.13;6.00;;;;;;;11.27;41.44;97500.66;6156330;23;20056;-27
2024/01/23 00:12:05;;;;;;;10.88;6.45;;;;;;;11.44;41.32;97493.50;6156412;23;20006;-27
2024/01/23 00:14:32;;;;;;;12.93;7.03;;;;;;;11.31;41.50;97489.78;6156393;23;20002;-27
2024/01/23 00:16:57;;;;;;;11.27;6.85;;;;;;;11.55;41.70;97506.97;6156527;23;20016;-27
2024/01/23 00:19:23;;;;;;;11.82;7.10;;;;;;;11.20;42.44;97516.28;6156422;23;20076;-27
2024/01/23 00:21:48;;;;;;;14.82;8.85;;;;;;;11.38;42.73;97522.28;6155954;23;20009;-27
2024/01/23 00:24:14;;;;;;;15.30;8.32;;;;;;;11.36;42.96;97540.94;6156548;23;20008;-27
2024/01/23 00:26:39;;;;;;;10.75;6.63;;;;;;;11.58;42.82;97544.19;6156304;23;20336;-27
2024/01/23 00:29:07;;;;;;;12.38;7.10;;;;;;;11.41;43.19;97540.47;6156238;23;20014;-27
2024/01/23 00:31:33;;;;;;;9.80;6.18;;;;;;;11.48;43.79;97524.13;6156604;23;20114;-27
2024/01/23 00:33:58;;;;;;;10.70;6.68;;;;;;;11.45;43.61;97533.84;6156133;23;20037;-27
2024/01/23 00:36:24;;;;;;;13.50;6.68;;;;;;;11.38;43.22;97522.28;6155521;23;20024;-27
2024/01/23 00:38:49;;;;;;;11.55;7.03;;;;;;;11.37;43.60;97521.53;6156228;23;20005;-28
2024/01/23 00:41:15;;;;;;;15.43;8.27;;;;;;;11.21;43.63;97513.16;6155887;23;20045;-27
2024/01/23 00:43:40;;;;;;;14.60;8.50;;;;;;;11.02;44.36;97517.22;6155983;23;20001;-27
2024/01/23 00:46:06;;;;;;;12.77;8.40;;;;;;;11.32;43.59;97496.75;6156181;23;20009;-27
2024/01/23 00:48:32;;;;;;;13.40;8.25;;;;;;;11.41;43.92;97499.75;6155928;23;20008;-27
2024/01/23 00:50:57;;;;;;;12.40;7.50;;;;;;;11.38;43.92;97493.16;6156260;23;20432;-27
2024/01/23 00:53:23;;;;;;;14.00;7.88;;;;;;;11.59;43.69;97483.25;6155752;23;20002;-27
2024/01/23 00:55:48;;;;;;;13.88;8.20;;;;;;;11.47;43.65;97501.63;6155930;23;20001;-27
2024/01/23 00:58:15;;;;;;;15.65;8.30;;;;;;;11.44;43.35;97515.22;6156338;23;20005;-27
2024/01/23 01:00:44;;;;;;;12.90;8.82;;;;;;;11.32;43.78;97526.63;6155751;23;20001;-27
2024/01/23 01:03:12;;;;;;;14.93;9.18;;;;;;;11.11;44.25;97517.53;6156098;23;20025;-27
2024/01/23 01:05:38;;;;;;;14.45;8.85;;;;;;;11.16;44.35;97527.94;6155821;23;20002;-27
2024/01/23 01:08:05;;;;;;;12.75;8.85;;;;;;;11.22;45.14;97525.56;6156006;23;20037;-27
2024/01/23 01:10:30;;;;;;;14.73;9.25;;;;;;;11.43;44.18;97528.03;6156348;23;20005;-27
2024/01/23 01:12:56;;;;;;;14.40;8.85;;;;;;;11.30;44.42;97521.59;6155510;23;20424;-27
2024/01/23 01:15:22;;;;;;;15.02;9.23;;;;;;;11.39;44.56;97508.28;6155959;23;20008;-27
2024/01/23 01:17:47;;;;;;;13.52;8.48;;;;;;;11.16;45.04;97508.94;6156002;23;20005;-27
2024/01/23 01:20:13;;;;;;;12.13;8.48;;;;;;;11.41;44.80;97516.03;6155624;23;20006;-27
2024/01/23 01:22:39;;;;;;;12.38;7.88;;;;;;;11.25;44.96;97507.69;6155741;23;20032;-27
2024/01/23 01:25:05;;;;;;;13.40;8.02;;;;;;;11.30;45.01;97499.09;6155719;23;20024;-27
2024/01/23 01:27:30;;;;;;;12.57;7.88;;;;;;;11.17;45.30;97501.56;6155913;23;20412;-27
2024/01/23 01:29:56;;;;;;;13.93;8.18;;;;;;;11.27;45.61;97506.09;6155796;23;20001;-27
2024/01/23 01:32:21;;;;;;;12.32;8.82;;;;;;;11.26;45.38;97504.56;6155615;23;20051;-27
2024/01/23 01:34:47;;;;;;;14.98;9.48;;;;;;;11.27;45.40;97494.47;6155823;23;20005;-27
2024/01/23 01:37:12;;;;;;;13.68;9.20;;;;;;;11.05;46.68;97478.41;6155243;23;20005;-27
2024/01/23 01:39:38;;;;;;;17.45;10.02;;;;;;;11.11;46.86;97481.47;6155537;23;20216;-27
2024/01/23 01:42:03;;;;;;;15.15;8.95;;;;;;;11.08;47.46;97474.13;6155309;23;20021;-27
2024/01/23 01:44:32;;;;;;;14.10;9.23;;;;;;;11.26;47.03;97479.34;6155462;23;20010;-27
2024/01/23 01:46:58;;;;;;;14.70;10.20;;;;;;;11.21;47.27;97468.94;6155662;23;20011;-27
2024/01/23 01:49:25;;;;;;;16.23;9.70;;;;;;;11.25;47.01;97480.53;6155076;23;20001;-27
2024/01/23 01:51:51;;;;;;;14.45;8.90;;;;;;;11.35;46.74;97463.34;6155552;23;20008;-27
2024/01/23 01:54:19;;;;;;;16.48;9.18;;;;;;;11.39;46.47;97458.63;6155412;23;20013;-27
2024/01/23 01:56:45;;;;;;;13.90;9.30;;;;;;;11.47;46.52;97463.59;6155468;23;20079;-27
2024/01/23 01:59:11;;;;;;;13.80;9.38;;;;;;;11.32;46.79;97478.50;6155391;23;20012;-27
2024/01/23 02:01:37;;;;;;;14.10;8.38;;;;;;;11.18;47.21;97475.19;6155372;23;20424;-27
2024/01/23 02:04:03;;;;;;;13.38;9.82;;;;;;;11.31;47.14;97489.78;6155664;23;20090;-27
2024/01/23 02:06:30;;;;;;;12.25;8.70;;;;;;;11.37;46.18;97493.59;6155589;23;20037;-27
2024/01/23 02:08:56;;;;;;;14.25;9.63;;;;;;;11.34;46.83;97468.00;6155497;23;20089;-27
2024/01/23 02:11:21;;;;;;;12.88;8.90;;;;;;;11.23;47.80;97458.44;6155404;23;20025;-27
2024/01/23 02:13:47;;;;;;;12.75;7.80;;;;;;;11.37;46.60;97463.72;6155136;23;20487;-27
2024/01/23 02:16:12;;;;;;;11.45;7.30;;;;;;;11.54;46.36;97460.00;6155300;23;20006;-27
2024/01/23 02:18:38;;;;;;;11.18;6.85;;;;;;;11.11;46.45;97455.09;6155433;23;20476;-27
2024/01/23 02:21:04;;;;;;;9.40;6.10;;;;;;;11.33;45.83;97452.13;6154983;23;20010;-27
2024/01/23 02:23:30;;;;;;;11.02;6.32;;;;;;;11.43;45.99;97452.00;6155601;23;20001;-27
2024/01/23 02:25:56;;;;;;;9.38;6.43;;;;;;;11.59;45.46;97451.41;6154839;23;20005;-27
2024/01/23 02:28:22;;;;;;;9.93;6.38;;;;;;;11.49;45.83;97455.81;6155307;23;20486;-27
2024/01/23 02:30:48;;;;;;;10.88;7.07;;;;;;;11.26;46.06;97444.03;6155056;23;20198;-27
2024/01/23 02:33:16;;;;;;;11.15;6.57;;;;;;;11.21;46.05;97428.22;6154818;23;20413;-27
2024/01/23 02:35:42;;;;;;;10.52;7.13;;;;;;;11.13;46.40;97435.66;6155231;23;20012;-27
2024/01/23 02:38:10;;;;;;;9.15;5.50;;;;;;;11.39;45.88;97428.75;6155117;23;20009;-27
2024/01/23 02:40:35;;;;;;;6.28;4.75;;;;;;;11.52;46.08;97429.75;6154703;23;20006;-27
2024/01/23 02:43:01;;;;;;;8.45;5.85;;;;;;;11.39;46.34;97428.75;6129161;23;20085;-27
2024/01/23 02:45:27;;;;;;;8.60;5.97;;;;;;;11.46;45.65;97431.41;6154853;23;20001;-27
2024/01/23 02:47:52;;;;;;;9.05;5.53;;;;;;;11.50;45.67;97426.66;6154957;23;20001;-27
2024/01/23 02:50:18;;;;;;;10.05;6.78;;;;;;;11.39;46.03;97426.03;6154917;23;20060;-27
2024/01/23 02:52:44;;;;;;;9.50;5.68;;;;;;;11.30;46.10;97423.81;6154950;23;20439;-27
2024/01/23 02:55:09;;;;;;;8.18;5.38;;;;;;;11.40;45.92;97424.88;6155033;23;20009;-27
2024/01/23 02:57:35;;;;;;;8.50;5.28;;;;;;;11.35;45.83;97422.63;6154776;23;20005;-27
2024/01/23 03:00:00;;;;;;;10.63;5.32;;;;;;;11.47;45.26;97413.94;6154803;23;20320;-27
2024/01/23 03:02:26;;;;;;;6.70;4.95;;;;;;;11.31;45.60;97403.66;6154663;23;20029;-27
2024/01/23 03:04:51;;;;;;;7.55;4.18;;;;;;;11.39;46.22;97401.59;6155137;23;20112;-27
2024/01/23 03:07:17;;;;;;;5.85;3.70;;;;;;;11.39;46.41;97393.44;6155091;23;20005;-27
2024/01/23 03:09:43;;;;;;;7.30;3.50;;;;;;;11.48;46.00;97383.66;6154781;23;20028;-27
2024/01/23 03:12:22;;;;;;;5.22;3.55;;;;;;;11.49;45.71;97393.34;6154960;23;20070;-27
2024/01/23 03:14:49;;;;;;;7.10;4.03;;;;;;;11.40;44.93;97397.72;6154578;23;20009;-27
2024/01/23 03:17:16;;;;;;;5.53;4.07;;;;;;;11.46;45.07;97387.94;6155251;23;20001;-27
2024/01/23 03:19:42;;;;;;;7.50;4.40;;;;;;;11.37;45.16;97395.81;6154597;23;20005;-27
2024/01/23 03:22:08;;;;;;;7.53;4.32;;;;;;;11.40;45.01;97401.19;6154614;23;20044;-27
2024/01/23 03:24:37;;;;;;;4.95;3.63;;;;;;;11.64;44.13;97383.00;6155204;23;20009;-27
2024/01/23 03:27:04;;;;;;;7.93;3.83;;;;;;;11.50;44.52;97372.34;6128219;23;20384;-27
2024/01/23 03:29:37;;;;;;;5.35;3.67;;;;;;;11.44;44.50;97374.75;6154750;23;20021;-27
2024/01/23 03:32:03;;;;;;;7.68;3.28;;;;;;;11.41;45.05;97372.84;6154783;23;20009;-27
2024/01/23 03:34:31;;;;;;;4.45;3.30;;;;;;;11.37;45.17;97368.66;6154690;23;20477;-27
2024/01/23 03:36:57;;;;;;;6.03;2.72;;;;;;;11.34;45.60;97347.75;6155172;23;20136;-27
2024/01/23 03:39:22;;;;;;;5.75;3.58;;;;;;;11.56;45.61;97354.41;6154474;23;20419;-27
2024/01/23 03:41:48;;;;;;;6.35;3.08;;;;;;;11.35;45.72;97338.44;6154284;23;20025;-27
2024/01/23 03:44:13;;;;;;;5.03;2.83;;;;;;;11.48;46.09;97336.69;6154534;23;20446;-27
2024/01/23 03:46:38;;;;;;;5.07;2.60;;;;;;;11.59;46.53;97333.81;6154826;23;20061;-27
2024/01/23 03:49:04;;;;;;;3.97;2.45;;;;;;;11.68;46.35;97334.84;6154720;23;20013;-27
2024/01/23 03:51:29;;;;;;;5.10;2.72;;;;;;;11.52;46.35;97327.28;6154539;23;20005;-27
2024/01/23 03:53:55;;;;;;;4.07;2.53;;;;;;;11.53;47.13;97320.69;6154468;23;20029;-27
2024/01/23 03:56:21;;;;;;;4.30;2.55;;;;;;;11.35;47.30;97328.34;6154776;23;19998;-27
2024/01/23 03:58:47;;;;;;;4.32;2.60;;;;;;;11.65;47.16;97319.34;6154906;23;20072;-27
2024/01/23 04:01:12;;;;;;;3.85;2.33;;;;;;;11.74;46.82;97316.91;6154773;23;20428;-27
2024/01/23 04:03:38;;;;;;;4.88;2.72;;;;;;;11.53;47.46;97317.19;6154476;23;20092;-27
2024/01/23 04:06:03;;;;;;;3.92;2.30;;;;;;;11.70;47.54;97327.03;6154483;23;20005;-27
2024/01/23 04:08:29;;;;;;;4.20;2.50;;;;;;;11.60;47.86;97321.78;6154926;23;20010;-27
2024/01/23 04:10:57;;;;;;;2.97;2.17;;;;;;;11.52;48.69;97324.59;6154996;23;20001;-27
2024/01/23 04:13:22;;;;;;;3.92;2.33;;;;;;;11.57;48.85;97323.34;6156352;23;20009;-27
2024/01/23 04:15:48;;;;;;;4.82;2.40;;;;;;;11.77;48.77;97342.50;6156287;23;20032;-27
2024/01/23 04:18:13;;;;;;;4.85;2.60;;;;;;;11.55;49.15;97339.28;6156657;23;20083;-27
2024/01/23 04:20:40;;;;;;;5.18;2.63;;;;;;;11.66;49.38;97333.69;6156385;23;20005;-27
2024/01/23 04:23:05;;;;;;;5.32;2.50;;;;;;;11.67;49.55;97338.72;6156275;23;20013;-27
2024/01/23 04:25:31;;;;;;;5.07;2.70;;;;;;;11.61;49.90;97343.09;6156191;23;20378;-27
2024/01/23 04:27:57;;;;;;;4.63;2.85;;;;;;;11.52;49.72;97348.25;6156491;23;20005;-27
2024/01/23 04:30:23;;;;;;;4.35;2.70;;;;;;;11.72;49.13;97357.28;6156448;23;20025;-27
2024/01/23 04:32:48;;;;;;;5.28;2.47;;;;;;;11.60;49.71;97344.28;6156221;23;20005;-27
2024/01/23 04:35:14;;;;;;;6.20;2.70;;;;;;;11.59;49.53;97337.31;6156274;23;20006;-27
2024/01/23 04:37:39;;;;;;;8.13;2.72;;;;;;;11.52;49.83;97342.81;6156141;23;20006;-27
2024/01/23 04:40:07;;;;;;;5.50;3.28;;;;;;;11.62;49.76;97350.03;6155948;23;20013;-27
2024/01/23 04:42:33;;;;;;;5.68;2.50;;;;;;;11.52;50.00;97340.09;6156067;23;20017;-27
2024/01/23 04:44:59;;;;;;;4.20;2.50;;;;;;;11.55;50.38;97333.09;6156159;23;20079;-27
2024/01/23 04:47:25;;;;;;;4.90;2.75;;;;;;;11.49;50.74;97330.09;6155778;23;20451;-27
2024/01/23 04:49:51;;;;;;;3.65;2.60;;;;;;;11.49;50.77;97325.41;6156340;23;20010;-27
2024/01/23 04:52:17;;;;;;;4.40;2.47;;;;;;;11.73;50.08;97328.19;6155719;23;20002;-27
2024/01/23 04:54:43;;;;;;;5.40;2.60;;;;;;;11.75;50.27;97336.66;6156051;23;20009;-27
2024/01/23 04:57:08;;;;;;;6.20;2.92;;;;;;;11.62;50.90;97333.75;6156212;23;20006;-27
2024/01/23 04:59:34;;;;;;;5.03;2.80;;;;;;;11.65;50.88;97340.31;6156135;23;20024;-27
2024/01/23 05:02:00;;;;;;;7.90;2.63;;;;;;;11.56;51.38;97359.84;6156087;23;20085;-27
2024/01/23 05:04:25;;;;;;;4.10;2.55;;;;;;;11.75;50.39;97350.25;6155888;23;20029;-27
2024/01/23 05:06:51;;;;;;;4.05;2.47;;;;;;;11.81;50.54;97346.69;6156162;23;20005;-27
2024/01/23 05:09:16;;;;;;;5.03;2.60;;;;;;;11.71;51.20;97358.47;6155821;23;20001;-27
2024/01/23 05:11:42;;;;;;;7.38;2.83;;;;;;;11.73;51.32;97356.13;6155972;23;20016;-27
2024/01/23 05:14:07;;;;;;;4.80;2.63;;;;;;;11.57;52.04;97345.09;6155753;23;20029;-27
2024/01/23 05:16:33;;;;;;;5.22;2.85;;;;;;;11.79;51.33;97353.72;6156024;23;20088;-27
2024/01/23 05:18:59;;;;;;;5.13;2.80;;;;;;;11.77;51.54;97356.84;6155309;23;20009;-27
2024/01/23 05:21:24;;;;;;;7.72;2.70;;;;;;;11.85;51.80;97354.81;6156240;23;20008;-27
2024/01/23 05:23:49;;;;;;;7.18;2.90;;;;;;;11.82;51.95;97350.97;6155351;23;20005;-27
2024/01/23 05:26:15;;;;;;;5.55;2.72;;;;;;;11.68;52.45;97356.56;6155928;23;20331;-27
2024/01/23 05:28:40;;;;;;;5.07;3.20;;;;;;;11.73;52.38;97368.94;6155870;23;20144;-27
2024/01/23 05:31:06;;;;;;;3.88;2.60;;;;;;;11.76;52.29;97352.59;6155814;23;20005;-27
2024/01/23 05:33:32;;;;;;;4.95;2.53;;;;;;;11.78;52.13;97350.22;6155778;23;20089;-27
2024/01/23 05:35:57;;;;;;;5.57;2.72;;;;;;;11.73;52.55;97350.69;6155858;23;20312;-27
2024/01/23 05:38:23;;;;;;;4.47;2.33;;;;;;;11.56;53.05;97353.66;6155870;23;20005;-27
2024/01/23 05:40:48;;;;;;;4.80;2.63;;;;;;;11.66;52.96;97358.94;6155641;23;20503;-27
2024/01/23 05:43:14;;;;;;;5.20;2.58;;;;;;;11.55;53.34;97354.81;6155499;23;20002;-27
2024/01/23 05:45:40;;;;;;;5.45;2.28;;;;;;;11.48;53.66;97356.47;6155376;23;20032;-27
2024/01/23 05:48:06;;;;;;;4.38;2.67;;;;;;;11.48;53.54;97353.00;6155615;23;20098;-27
2024/01/23 05:50:32;;;;;;;4.15;2.47;;;;;;;11.45;53.71;97373.59;6155237;23;20526;-27
2024/01/23 05:52:57;;;;;;;4.63;2.60;;;;;;;11.57;53.69;97366.81;6155609;23;20005;-27
2024/01/23 05:55:26;;;;;;;4.60;2.33;;;;;;;11.65;53.59;97378.34;6155192;23;20005;-27
2024/01/23 05:57:51;;;;;;;5.57;2.38;;;;;;;11.66;53.28;97374.47;6155276;23;20008;-28
2024/01/23 06:00:17;;;;;;;6.38;2.75;;;;;;;11.74;53.31;97376.69;6155481;23;20006;-27
2024/01/23 06:02:42;;;;;;;5.10;2.75;;;;;;;11.61;53.77;97383.84;6155333;23;20006;-27
2024/01/23 06:05:08;;;;;;;5.38;2.83;;;;;;;11.47;54.10;97394.91;6155480;23;20199;-27
2024/01/23 06:07:39;;;;;;;6.35;2.90;;;;;;;11.66;53.50;97402.41;6155238;23;20009;-27
2024/01/23 06:10:05;;;;;;;4.07;2.50;;;;;;;11.80;53.58;97391.38;6155912;23;20040;-27
2024/01/23 06:12:31;;;;;;;5.05;2.58;;;;;;;11.62;54.13;97400.94;6155201;23;20005;-27
2024/01/23 06:14:56;;;;;;;4.82;2.40;;;;;;;11.42;54.68;97401.56;6154885;23;20017;-27
2024/01/23 06:17:22;;;;;;;5.18;2.30;;;;;;;11.56;54.59;97375.38;6155674;23;20037;-26
2024/01/23 06:19:47;;;;;;;6.18;2.38;;;;;;;11.55;54.39;97393.63;6155359;23;20289;-26
2024/01/23 06:22:14;;;;;;;4.57;2.67;;;;;;;11.52;54.69;97394.44;6155283;23;20072;-27
2024/01/23 06:24:39;;;;;;;5.00;2.17;;;;;;;11.64;54.50;97402.03;6155399;23;20036;-26
2024/01/23 06:27:05;;;;;;;6.57;2.70;;;;;;;11.76;53.98;97400.72;6155049;23;20001;-27
2024/01/23 06:29:30;;;;;;;6.43;2.40;;;;;;;11.60;54.59;97403.28;6155137;23;20002;-26
2024/01/23 06:31:56;;;;;;;6.65;2.90;;;;;;;11.70;54.32;97402.34;6155146;23;20404;-26
2024/01/23 06:34:21;;;;;;;5.35;2.40;;;;;;;11.73;54.46;97401.53;6154551;23;20002;-26
2024/01/23 06:36:47;;;;;;;6.05;2.65;;;;;;;11.68;54.80;97416.34;6155288;23;20011;-27
2024/01/23 06:39:13;;;;;;;4.22;2.33;;;;;;;11.62;54.79;97417.22;6154793;23;20001;-26
2024/01/23 06:41:39;;;;;;;7.82;2.33;;;;;;;11.57;55.08;97421.16;6154955;23;20431;-26
2024/01/23 06:44:04;;;;;;;7.65;2.95;;;;;;;11.65;55.44;97411.72;6154949;23;20009;-26
2024/01/23 06:46:29;;;;;;;4.45;2.15;;;;;;;11.88;53.96;97414.53;6155037;23;20009;-26
2024/01/23 06:48:55;;;;;;;7.78;2.42;;;;;;;11.72;54.70;97421.75;6155050;23;20317;-27
2024/01/23 06:51:22;;;;;;;4.65;2.30;;;;;;;11.91;54.41;97414.91;6155013;23;20005;-26
2024/01/23 06:53:47;;;;;;;4.97;2.42;;;;;;;11.53;55.89;97425.88;6155064;23;20001;-26
2024/01/23 06:56:13;;;;;;;7.20;2.33;;;;;;;11.76;55.09;97427.91;6155209;23;20013;-26
2024/01/23 06:58:38;;;;;;;5.68;2.45;;;;;;;11.75;55.41;97420.91;6154485;23;20084;-26
2024/01/23 07:01:03;;;;;;;7.00;2.30;;;;;;;11.74;55.30;97425.59;6154867;23;20009;-26
2024/01/23 07:03:29;;;;;;;6.32;2.58;;;;;;;11.83;55.14;97420.44;6154935;23;20005;-26
2024/01/23 07:05:55;;;;;;;5.07;2.40;;;;;;;11.87;54.88;97426.59;6155005;23;20072;-26
2024/01/23 07:08:21;;;;;;;5.03;2.72;;;;;;;11.82;54.94;97420.84;6155185;23;20039;-26
2024/01/23 07:10:46;;;;;;;7.40;4.47;;;;;;;11.79;55.45;97438.75;6154918;23;20013;-27
2024/01/23 07:13:13;;;;;;;5.88;2.92;;;;;;;11.73;55.72;97434.94;6128637;23;20002;-26
2024/01/23 07:15:39;;;;;;;3.80;2.47;;;;;;;11.67;55.81;97431.13;6154568;23;20005;-27
2024/01/23 07:18:04;;;;;;;7.45;2.70;;;;;;;11.80;55.66;97434.06;6155246;23;20311;-26
2024/01/23 07:20:30;;;;;;;12.50;2.72;;;;;;;11.82;55.29;97435.22;6154868;23;20633;-26
2024/01/23 07:22:55;;;;;;;8.68;2.55;;;;;;;11.83;55.52;97444.13;6154548;23;20077;-26
2024/01/23 07:25:21;;;;;;;5.63;2.58;;;;;;;11.84;55.61;97441.00;6155390;23;20363;-26
2024/01/23 07:27:47;;;;;;;6.30;2.72;;;;;;;11.57;56.14;97442.91;6154936;23;20319;-26
2024/01/23 07:30:12;;;;;;;8.63;2.38;;;;;;;11.82;55.60;97448.81;6154603;23;20013;-26
2024/01/23 07:32:38;;;;;;;5.78;2.45;;;;;;;11.69;56.26;97460.59;6154725;23;20408;-26
2024/01/23 07:35:03;;;;;;;8.32;2.38;;;;;;;11.81;55.96;97462.78;6154860;23;20087;-26
2024/01/23 07:37:29;;;;;;;5.18;2.17;;;;;;;11.76;56.86;97469.44;6128692;23;20006;-26
2024/01/23 07:39:55;;;;;;;7.72;2.85;;;;;;;11.83;56.38;97455.78;6154847;23;20012;-26
2024/01/23 07:42:20;;;;;;;4.35;2.03;;;;;;;11.82;56.04;97464.34;6154256;23;20018;-26
2024/01/23 07:44:47;;;;;;;6.85;2.70;;;;;;;11.83;56.44;97471.31;6154838;23;19997;-26
2024/01/23 07:47:12;;;;;;;8.10;2.80;;;;;;;11.83;55.85;97466.66;6155863;23;20002;-27
2024/01/23 07:49:38;;;;;;;6.97;2.63;;;;;;;12.00;55.73;97459.41;6130749;23;20005;-26
2024/01/23 07:52:04;;;;;;;10.40;2.70;;;;;;;11.91;55.96;97459.16;6156617;23;20059;-26
2024/01/23 07:54:32;;;;;;;8.00;2.30;;;;;;;11.94;56.27;97452.13;6156290;23;20001;-26
2024/01/23 07:56:58;;;;;;;7.32;2.45;;;;;;;11.91;56.68;97442.06;6156955;23;20080;-26
2024/01/23 07:59:23;;;;;;;10.10;2.83;;;;;;;11.84;57.13;97423.94;6156389;23;20044;-26
2024/01/23 08:01:49;;;;;;;9.73;2.53;;;;;;;12.02;56.79;97416.28;6156791;23;20008;-26
2024/01/23 08:04:15;;;;;;;6.22;2.25;;;;;;;11.88;56.77;97411.03;6156481;23;20063;-26
2024/01/23 08:06:40;;;;;;;8.80;2.90;;;;;;;12.02;56.29;97418.22;6156423;23;20308;-26
2024/01/23 08:09:06;;;;;;;7.90;2.35;;;;;;;11.60;57.90;97427.72;6156365;23;20420;-26
2024/01/23 08:11:31;;;;;;;6.80;2.08;;;;;;;11.81;57.61;97438.34;6156725;23;20412;-26
2024/01/23 08:13:57;;;;;;;8.77;2.72;;;;;;;11.88;57.50;97443.66;6156093;23;20010;-26
2024/01/23 08:16:25;;;;;;;8.43;2.55;;;;;;;11.86;57.37;97449.53;6156525;23;20360;-26
2024/01/23 08:18:50;;;;;;;4.35;2.20;;;;;;;11.81;57.66;97458.13;6156340;23;20001;-26
2024/01/23 08:21:17;;;;;;;6.32;1.95;;;;;;;11.91;58.09;97456.44;6156535;23;20332;-26
2024/01/23 08:23:43;;;;;;;14.18;2.20;;;;;;;12.00;58.28;97461.34;6156655;23;20004;-26
2024/01/23 08:26:08;;;;;;;14.68;4.10;;;;;;;11.78;59.59;97458.94;6155973;23;20010;-26
2024/01/23 08:28:34;;;;;;;7.78;2.30;;;;;;;12.16;57.94;97456.06;6156217;23;20009;-26
2024/01/23 08:31:03;;;;;;;5.70;2.20;;;;;;;11.95;58.91;97450.97;6155917;23;20005;-26
2024/01/23 08:33:32;;;;;;;5.40;2.65;;;;;;;12.03;58.48;97461.31;6156474;23;20404;-26
2024/01/23 08:35:57;;;;;;;11.07;2.92;;;;;;;12.11;58.38;97475.59;6156242;23;20008;-26
2024/01/23 08:38:23;;;;;;;6.32;2.97;;;;;;;11.81;59.58;97482.59;6156091;23;20009;-26
2024/01/23 08:40:48;;;;;;;8.00;2.47;;;;;;;11.97;58.61;97476.56;6156202;23;21428;-26
2024/01/23 08:43:13;;;;;;;9.90;2.60;;;;;;;11.95;58.83;97491.75;6155922;23;20316;-26
2024/01/23 08:45:39;;;;;;;5.63;2.50;;;;;;;11.93;58.91;97492.16;6155839;23;20450;-26
2024/01/23 08:48:04;;;;;;;4.00;2.03;;;;;;;12.09;57.94;97494.25;6156461;23;20006;-26
2024/01/23 08:50:30;;;;;;;10.90;2.72;;;;;;;12.11;59.03;97506.28;6155910;23;20029;-26
2024/01/23 08:52:56;;;;;;;4.40;1.90;;;;;;;12.14;58.20;97504.66;6156099;23;20012;-26
2024/01/23 08:55:21;;;;;;;6.75;2.20;;;;;;;12.00;59.14;97513.00;6155917;23;20444;-26
2024/01/23 08:57:47;;;;;;;7.18;2.50;;;;;;;11.92;60.09;97514.28;6155783;23;20040;-26
2024/01/23 09:00:13;;;;;;;5.30;2.38;;;;;;;12.14;58.70;97519.03;6156116;23;20001;-26
2024/01/23 09:02:39;;;;;;;10.45;3.25;;;;;;;12.06;58.82;97527.69;6155908;23;20444;-26
2024/01/23 09:05:05;;;;;;;8.82;3.25;;;;;;;12.00;59.49;97535.53;6155928;23;19998;-26
2024/01/23 09:07:31;;;;;;;13.07;4.57;;;;;;;12.00;59.83;97526.59;6155813;23;20073;-27
2024/01/23 09:09:56;;;;;;;8.93;4.35;;;;;;;11.98;59.70;97529.00;6156013;23;20413;-26
2024/01/23 09:12:22;;;;;;;13.00;4.88;;;;;;;12.09;59.93;97540.50;6155869;23;20013;-26
2024/01/23 09:14:48;;;;;;;12.45;3.85;;;;;;;12.23;59.24;97540.31;6155628;23;20002;-26
2024/01/23 09:17:13;;;;;;;13.32;5.57;;;;;;;12.21;59.60;97534.50;6155799;23;20416;-26
2024/01/23 09:19:39;;;;;;;9.38;3.70;;;;;;;11.90;60.17;97535.66;6156263;23;20100;-26
2024/01/23 09:22:05;;;;;;;14.07;4.40;;;;;;;11.96;60.11;97539.50;6155753;23;20060;-26
2024/01/23 09:24:31;;;;;;;11.38;4.50;;;;;;;12.19;59.49;97537.63;6129370;23;20340;-26
2024/01/23 09:27:01;;;;;;;11.55;4.50;;;;;;;12.13;59.84;97543.91;6155784;23;20009;-26
2024/01/23 09:29:28;;;;;;;10.65;4.13;;;;;;;12.11;60.02;97543.56;6156027;23;20005;-26
2024/01/23 09:31:54;;;;;;;10.23;3.65;;;;;;;12.02;60.05;97552.22;6129300;23;20032;-26
2024/01/23 09:34:19;;;;;;;13.82;4.70;;;;;;;11.98;60.35;97548.78;6155304;23;20005;-26
2024/01/23 09:36:45;;;;;;;10.27;5.35;;;;;;;12.27;59.40;97543.72;6156000;23;20006;-26
2024/01/23 09:39:13;;;;;;;10.70;4.57;;;;;;;12.79;57.38;97541.38;6129104;23;20012;-26
2024/01/23 09:41:48;;;;;;;12.82;4.25;;;;;;;12.70;56.20;97543.09;6155616;23;20017;-26
2024/01/23 09:44:14;;;;;;;12.88;4.57;;;;;;;13.23;56.01;97550.38;6155474;23;20498;-27
2024/01/23 09:46:42;;;;;;;13.63;5.65;;;;;;;13.17;54.76;97550.13;6155625;23;20009;-26
2024/01/23 09:49:08;;;;;;;10.25;4.80;;;;;;;13.68;52.70;97550.72;6156015;23;20005;-26
2024/01/23 09:51:35;;;;;;;10.18;4.80;;;;;;;13.71;53.11;97552.63;6129241;23;20015;-26
2024/01/23 09:54:00;;;;;;;8.13;4.10;;;;;;;13.78;52.70;97560.66;6155326;23;20499;-27
2024/01/23 09:56:26;;;;;;;10.48;4.60;;;;;;;13.71;52.60;97551.84;6155065;23;20005;-27
2024/01/23 09:58:52;;;;;;;7.63;4.20;;;;;;;13.80;51.95;97558.28;6155501;23;20002;-27
2024/01/23 10:01:18;;;;;;;8.25;3.85;;;;;;;13.94;51.41;97547.09;6155397;23;20313;-27
2024/01/23 10:03:48;;;;;;;11.18;3.83;;;;;;;14.30;50.94;97544.38;6155422;23;20129;-27
2024/01/23 10:06:14;;;;;;;10.30;3.67;;;;;;;14.57;50.14;97540.69;6155477;23;20005;-27
2024/01/23 10:08:40;;;;;;;10.40;4.45;;;;;;;14.23;51.37;97532.81;6155005;23;20005;-26
2024/01/23 10:11:05;;;;;;;9.10;2.70;;;;;;;14.22;51.52;97528.56;6155300;23;20060;-26
2024/01/23 10:13:31;;;;;;;11.52;3.08;;;;;;;14.30;50.80;97529.97;6155490;23;20012;-26
2024/01/23 10:15:57;;;;;;;5.28;2.60;;;;;;;14.16;51.29;97541.19;6154951;23;20429;-26
2024/01/23 10:18:25;;;;;;;5.28;3.00;;;;;;;13.89;52.24;97541.34;6155405;23;20064;-26
2024/01/23 10:20:51;;;;;;;8.80;2.85;;;;;;;13.75;52.87;97526.03;6155173;23;20013;-26
2024/01/23 10:23:17;;;;;;;6.65;2.42;;;;;;;13.76;52.96;97524.84;6155692;23;20002;-27
2024/01/23 10:25:43;;;;;;;6.07;2.60;;;;;;;13.62;52.97;97530.59;6155278;23;20080;-27
2024/01/23 10:28:09;;;;;;;6.80;2.20;;;;;;;13.60;53.45;97532.97;6155156;23;20091;-26
2024/01/23 10:30:38;;;;;;;4.78;2.17;;;;;;;13.59;53.64;97532.22;6155186;23;20134;-26
2024/01/23 10:33:05;;;;;;;7.20;3.53;;;;;;;13.50;54.32;97531.97;6155023;23;20005;-26
2024/01/23 10:35:34;;;;;;;5.30;2.72;;;;;;;13.47;54.93;97529.34;6155191;23;20002;-26
2024/01/23 10:38:02;;;;;;;6.10;2.58;;;;;;;13.34;55.49;97531.16;6155469;23;20060;-27
2024/01/23 10:40:29;;;;;;;6.63;3.17;;;;;;;13.29;55.10;97552.22;6154884;23;20383;-26
2024/01/23 10:42:58;;;;;;;7.03;2.72;;;;;;;13.35;55.48;97559.94;6155462;23;20049;-27
2024/01/23 10:45:24;;;;;;;7.78;2.72;;;;;;;13.29;55.49;97552.22;6154739;23;20009;-27
2024/01/23 10:47:52;;;;;;;7.25;2.40;;;;;;;13.36;55.04;97545.09;6155059;23;20424;-26
2024/01/23 10:50:17;;;;;;;6.47;2.45;;;;;;;13.43;54.69;97548.47;6154667;23;20315;-26
2024/01/23 10:52:46;;;;;;;8.85;3.03;;;;;;;13.12;55.44;97544.31;6155220;23;20001;-26
2024/01/23 10:55:13;;;;;;;9.80;2.42;;;;;;;13.26;54.98;97535.94;6155118;23;20462;-26
2024/01/23 10:57:39;;;;;;;3.75;2.30;;;;;;;13.15;55.31;97541.59;6154805;23;20012;-26
2024/01/23 11:00:10;;;;;;;7.55;2.58;;;;;;;13.21;54.72;97545.38;6154871;23;20032;-26
2024/01/23 11:02:43;;;;;;;4.72;2.20;;;;;;;13.22;54.78;97533.31;6154874;23;20009;-26
2024/01/23 11:05:09;;;;;;;8.10;3.63;;;;;;;13.09;55.54;97531.56;6154909;23;20001;-26
2024/01/23 11:07:52;;;;;;;12.07;5.00;;;;;;;13.05;56.23;97525.41;6154821;23;20331;-27
2024/01/23 11:10:27;;;;;;;13.88;4.82;;;;;;;12.81;57.63;97522.69;6154944;23;20067;-27
2024/01/23 11:13:14;;;;;;;10.75;5.78;;;;;;;13.03;56.96;97506.75;6154294;23;20001;-26
2024/01/23 11:15:40;;;;;;;9.70;4.43;;;;;;;13.11;56.11;97523.72;6154589;23;20044;-26
2024/01/23 11:18:28;;;;;;;8.70;4.13;;;;;;;13.00;56.02;97520.41;6154850;23;20085;-26
2024/01/23 11:21:09;;;;;;;10.02;3.90;;;;;;;13.01;56.78;97525.47;6156062;23;20065;-27
2024/01/23 11:23:39;;;;;;;6.35;3.00;;;;;;;13.14;55.71;97523.69;6158352;23;20316;-26
2024/01/23 11:26:12;;;;;;;7.80;3.60;;;;;;;13.09;55.21;97516.00;6157657;23;20005;-26
2024/01/23 11:28:38;;;;;;;6.50;3.05;;;;;;;12.99;55.81;97503.31;6158028;23;20013;-26